Current Weather

Fitch H Beach

Charlotte, Michigan (KFPK)

Report from: Thursday, April 25, 2024 12:15 AM EDT
Current time: Thursday, April 25, 2024 12:36 AM EDT

Nearby weather – Weather history – Daily summaries
Weather forecast

Temperature1.0°C (33.8°F)
Wind chill-0.7°C (30.8°F)
Dew point-2.0°C (28.4°F)
Winds 3 kts (1.5 m/s, 3.5 mph) Northeast (50°)
Visibility10 mi. (16.1 km)
Clouds Sky clear
Altimeter30.29 in.Hg (1026 mB)
Relative humidity80 %
Density altitude-2,050 ft. (-625 m)
Remarks Fully automated report
Automated weather observing station with precipitation discriminator
Flight conditions Visual Meteorological Conditions
Raw dataKFPK 250415Z AUTO 05003KT 10SM CLR 01/M02 A3029 RMK AO2
An error has occurred. This application may no longer respond until reloaded. Reload 🗙